»·PEaware :: N74KW KGEG-KHQM

N74KW :: KGEG-KHQM

FLIGHT INFORMATION

Flight Status: Arrived
Operator: Privately registered:
United States
More flights under this callsign
Pilot: Charles C. (26995)
Aircraft: MCDONNELL-DOUGLAS SKYTRAIN C-47
(DC3)
More flights by this aircraft type
Origin: KGEG Spokane Intl
United States
Destination: KHQM Bowerman
United States
More flights between these airports :: More routes between these airports
Route: KGEG KHQM
File this flight plan on PilotEdge
Remarks:
Altitude:
(Current/Filed)
8,500ft
Speed:
(Current/Filed)
150kts
Departed: 06-Sep-20 10:42 AM
Arrived: 06-Sep-20 11:45 AM
Distance/Time
Traveled:
263nm/1:03
Distance/Time
To Go:
Arrived

Flight Plot

Page will automatically refresh every two minutes.

Flight plan parsing failed; only flown route is shown


Map Options




Map Legend


Flown Route
Filed Route
Departure Airport
Arrival Airport
Navaid (VOR, NDB)
Fix

Horizontal Profiles

Position Reports

Time Latitude Longitude Heading Altitude Ground
Speed
06-Sep-20 10:40 47.302673 -120.026885 260 8606ft 164kts
06-Sep-20 10:41 47.293581 -120.092584 260 8610ft 163kts
06-Sep-20 10:42 47.285004 -120.158486 262 8599ft 164kts
06-Sep-20 10:43 47.276830 -120.224706 260 8595ft 164kts
06-Sep-20 10:44 47.267748 -120.290649 260 8598ft 164kts
06-Sep-20 10:45 47.258471 -120.356620 260 8602ft 164kts
06-Sep-20 10:46 47.249150 -120.422425 260 8608ft 164kts
06-Sep-20 10:47 47.239816 -120.487994 260 8615ft 163kts
06-Sep-20 10:48 47.230448 -120.553589 260 8618ft 163kts
06-Sep-20 10:49 47.221005 -120.619281 260 8620ft 164kts
06-Sep-20 10:50 47.211579 -120.684708 259 8623ft 164kts
06-Sep-20 10:51 47.201921 -120.751340 260 8624ft 164kts
06-Sep-20 10:52 47.192356 -120.817170 260 8623ft 164kts
06-Sep-20 10:53 47.182790 -120.882686 260 8623ft 164kts
06-Sep-20 10:54 47.172937 -120.947676 258 8623ft 164kts
06-Sep-20 10:55 47.161678 -121.012838 258 8623ft 164kts
06-Sep-20 10:56 47.150438 -121.077517 258 8623ft 164kts
06-Sep-20 10:57 47.139096 -121.142592 258 8623ft 164kts
06-Sep-20 10:58 47.127733 -121.207502 258 8623ft 164kts
06-Sep-20 10:59 47.116354 -121.272288 258 8651ft 163kts
06-Sep-20 11:00 47.104999 -121.336717 258 8679ft 162kts
06-Sep-20 11:01 47.093628 -121.400986 258 8708ft 162kts
06-Sep-20 11:02 47.082253 -121.465059 258 8730ft 162kts
06-Sep-20 11:03 47.069550 -121.528919 252 8730ft 164kts
06-Sep-20 11:04 47.052719 -121.591439 252 8732ft 164kts
06-Sep-20 11:05 47.035790 -121.653921 251 8733ft 165kts
06-Sep-20 11:06 47.018722 -121.716685 251 8736ft 165kts
06-Sep-20 11:07 47.001805 -121.778776 251 8734ft 166kts
06-Sep-20 11:08 46.984812 -121.840957 251 8734ft 166kts
06-Sep-20 11:09 46.967588 -121.903832 251 8734ft 166kts
06-Sep-20 11:10 46.950364 -121.966518 251 8734ft 166kts
06-Sep-20 11:11 46.932985 -122.029570 252 8734ft 166kts
06-Sep-20 11:12 46.915597 -122.092580 252 8727ft 167kts
06-Sep-20 11:13 46.898324 -122.154966 252 8723ft 167kts
06-Sep-20 11:14 46.880721 -122.218371 252 8730ft 166kts
06-Sep-20 11:15 46.872578 -122.282381 279 8729ft 161kts
06-Sep-20 11:16 46.877584 -122.347429 280 8730ft 161kts
06-Sep-20 11:17 46.882865 -122.412499 280 8731ft 160kts
06-Sep-20 11:18 46.888129 -122.477238 280 8731ft 160kts
06-Sep-20 11:19 46.893383 -122.542217 280 8730ft 160kts
06-Sep-20 11:20 46.898582 -122.606962 280 8730ft 160kts
06-Sep-20 11:21 46.903720 -122.671463 280 8731ft 160kts
06-Sep-20 11:22 46.908856 -122.736268 280 8731ft 160kts
06-Sep-20 11:23 46.913975 -122.801346 280 8531ft 173kts
06-Sep-20 11:24 46.919310 -122.869815 280 8492ft 166kts
06-Sep-20 11:25 46.924451 -122.936274 280 8491ft 162kts
06-Sep-20 11:26 46.929460 -123.001627 280 8488ft 161kts
06-Sep-20 11:27 46.934629 -123.069069 280 8174ft 172kts
06-Sep-20 11:28 46.939131 -123.140188 277 7728ft 181kts
06-Sep-20 11:29 46.944378 -123.215800 282 6940ft 189kts
06-Sep-20 11:30 46.952395 -123.291979 281 5855ft 188kts
06-Sep-20 11:31 46.958153 -123.362235 280 5503ft 152kts
06-Sep-20 11:32 46.962762 -123.418471 286 5445ft 129kts
06-Sep-20 11:33 46.972078 -123.467775 290 5205ft 124kts
06-Sep-20 11:34 46.982061 -123.519604 289 4530ft 142kts
06-Sep-20 11:35 46.993507 -123.579273 288 3537ft 159kts
06-Sep-20 11:36 47.005245 -123.641097 283 2956ft 142kts
06-Sep-20 11:37 47.000663 -123.690104 262 2667ft 121kts
06-Sep-20 11:38 46.995057 -123.737147 261 2235ft 113kts
06-Sep-20 11:39 46.987994 -123.779546 261 2121ft 96kts
06-Sep-20 11:40 46.983956 -123.821676 263 1416ft 101kts
06-Sep-20 11:41 46.981865 -123.857086 266 850ft 83kts
06-Sep-20 11:42 46.975846 -123.894254 262 350ft 98kts
06-Sep-20 11:44 46.972060 -123.928969 262 22ft 74kts
06-Sep-20 11:45 46.971964 -123.938661 80 22ft 10kts
06-Sep-20 11:46 46.973409 -123.930043 82 21ft 23kts
06-Sep-20 11:47 46.973680 -123.927529 157 21ft 0kts
06-Sep-20 11:48 46.973680 -123.927529 157 21ft 0kts
06-Sep-20 11:49 46.973680 -123.927529 157 21ft 0kts
06-Sep-20 11:50 46.973680 -123.927529 157 21ft 0kts
06-Sep-20 11:51 46.973680 -123.927529 157 21ft 0kts
06-Sep-20 11:52 46.973680 -123.927529 157 21ft 0kts
06-Sep-20 11:53 46.973680 -123.927529 157 21ft 0kts
06-Sep-20 11:54 46.973680 -123.927529 157 21ft 0kts
06-Sep-20 11:55 46.973680 -123.927529 157 21ft 0kts
06-Sep-20 11:56 46.973680 -123.927529 157 21ft 0kts
06-Sep-20 11:57 46.973680 -123.927529 157 21ft 0kts
06-Sep-20 11:58 46.973680 -123.927529 157 21ft 0kts
06-Sep-20 11:59 46.973680 -123.927529 157 21ft 0kts

Navigation Log

Ident Type
Flight plan parsing failed, navigation log unavailable